sensor_id;sensor_type;location;lat;lon;timestamp;pressure;altitude;pressure_sealevel;temperature;humidity
24558;BME280;12726;49.148;8.582;2023-03-13T00:01:00;99850.22;;;11.14;70.61
24558;BME280;12726;49.148;8.582;2023-03-13T00:03:46;99846.19;;;11.05;70.93
24558;BME280;12726;49.148;8.582;2023-03-13T00:06:33;99841.84;;;11.04;71.28
24558;BME280;12726;49.148;8.582;2023-03-13T00:09:19;99842.22;;;11.07;71.29
24558;BME280;12726;49.148;8.582;2023-03-13T00:12:06;99843.88;;;11.08;70.82
24558;BME280;12726;49.148;8.582;2023-03-13T00:14:52;99841.91;;;11.15;70.52
24558;BME280;12726;49.148;8.582;2023-03-13T00:17:37;99837.31;;;11.16;70.66
24558;BME280;12726;49.148;8.582;2023-03-13T00:20:22;99826.63;;;11.09;70.93
24558;BME280;12726;49.148;8.582;2023-03-13T00:23:08;99825.63;;;11.22;69.93
24558;BME280;12726;49.148;8.582;2023-03-13T00:25:59;99817.78;;;11.20;70.25
24558;BME280;12726;49.148;8.582;2023-03-13T00:28:45;99817.88;;;11.14;70.42
24558;BME280;12726;49.148;8.582;2023-03-13T00:31:31;99809.19;;;11.12;70.76
24558;BME280;12726;49.148;8.582;2023-03-13T00:34:16;99810.47;;;11.09;71.06
24558;BME280;12726;49.148;8.582;2023-03-13T00:37:01;99804.84;;;11.11;70.69
24558;BME280;12726;49.148;8.582;2023-03-13T00:39:47;99799.03;;;11.14;70.56
24558;BME280;12726;49.148;8.582;2023-03-13T00:42:33;99787.66;;;11.12;70.66
24558;BME280;12726;49.148;8.582;2023-03-13T00:45:19;99778.84;;;11.05;71.04
24558;BME280;12726;49.148;8.582;2023-03-13T00:48:04;99777.06;;;10.98;71.27
24558;BME280;12726;49.148;8.582;2023-03-13T00:50:52;99774.88;;;11.07;71.03
24558;BME280;12726;49.148;8.582;2023-03-13T00:53:38;99764.22;;;11.01;71.03
24558;BME280;12726;49.148;8.582;2023-03-13T00:56:23;99762.22;;;11.08;70.64
24558;BME280;12726;49.148;8.582;2023-03-13T00:59:10;99749.59;;;11.08;70.42
24558;BME280;12726;49.148;8.582;2023-03-13T01:01:55;99738.44;;;11.16;70.49
24558;BME280;12726;49.148;8.582;2023-03-13T01:04:41;99741.63;;;11.13;70.34
24558;BME280;12726;49.148;8.582;2023-03-13T01:07:28;99739.38;;;11.10;70.27
24558;BME280;12726;49.148;8.582;2023-03-13T01:10:13;99733.88;;;11.17;69.74
24558;BME280;12726;49.148;8.582;2023-03-13T01:12:58;99735.91;;;11.21;69.59
24558;BME280;12726;49.148;8.582;2023-03-13T01:15:45;99727.09;;;11.37;68.85
24558;BME280;12726;49.148;8.582;2023-03-13T01:18:31;99729.44;;;11.46;68.24
24558;BME280;12726;49.148;8.582;2023-03-13T01:21:18;99726.53;;;11.47;68.14
24558;BME280;12726;49.148;8.582;2023-03-13T01:24:04;99713.28;;;11.57;67.43
24558;BME280;12726;49.148;8.582;2023-03-13T01:26:49;99709.50;;;11.58;67.42
24558;BME280;12726;49.148;8.582;2023-03-13T01:29:34;99706.47;;;11.55;67.77
24558;BME280;12726;49.148;8.582;2023-03-13T01:32:21;99698.72;;;11.58;67.28
24558;BME280;12726;49.148;8.582;2023-03-13T01:35:07;99697.66;;;11.59;67.13
24558;BME280;12726;49.148;8.582;2023-03-13T01:37:53;99692.06;;;11.61;67.23
24558;BME280;12726;49.148;8.582;2023-03-13T01:40:39;99684.66;;;11.68;66.84
24558;BME280;12726;49.148;8.582;2023-03-13T01:43:26;99678.13;;;11.64;67.10
24558;BME280;12726;49.148;8.582;2023-03-13T01:46:13;99673.41;;;11.71;66.80
24558;BME280;12726;49.148;8.582;2023-03-13T01:49:04;99668.16;;;11.64;66.93
24558;BME280;12726;49.148;8.582;2023-03-13T01:51:52;99665.69;;;11.63;67.25
24558;BME280;12726;49.148;8.582;2023-03-13T01:54:41;99668.00;;;11.71;67.17
24558;BME280;12726;49.148;8.582;2023-03-13T01:57:30;99668.25;;;11.81;66.36
24558;BME280;12726;49.148;8.582;2023-03-13T02:00:20;99661.94;;;11.75;67.07
24558;BME280;12726;49.148;8.582;2023-03-13T02:03:10;99665.00;;;11.79;66.90
24558;BME280;12726;49.148;8.582;2023-03-13T02:05:58;99660.50;;;11.85;67.16
24558;BME280;12726;49.148;8.582;2023-03-13T02:08:47;99657.94;;;11.78;67.82
24558;BME280;12726;49.148;8.582;2023-03-13T02:11:41;99639.16;;;11.83;68.22
24558;BME280;12726;49.148;8.582;2023-03-13T02:14:32;99635.28;;;11.91;68.64
24558;BME280;12726;49.148;8.582;2023-03-13T02:17:19;99632.56;;;11.91;68.88
24558;BME280;12726;49.148;8.582;2023-03-13T02:20:05;99628.16;;;11.85;69.91
24558;BME280;12726;49.148;8.582;2023-03-13T02:22:55;99631.06;;;11.83;70.55
24558;BME280;12726;49.148;8.582;2023-03-13T02:25:46;99623.56;;;11.85;70.81
24558;BME280;12726;49.148;8.582;2023-03-13T02:28:36;99619.38;;;11.77;72.16
24558;BME280;12726;49.148;8.582;2023-03-13T02:31:22;99604.94;;;11.72;73.34
24558;BME280;12726;49.148;8.582;2023-03-13T02:34:08;99612.78;;;11.73;74.13
24558;BME280;12726;49.148;8.582;2023-03-13T02:36:54;99601.31;;;11.78;73.80
24558;BME280;12726;49.148;8.582;2023-03-13T02:39:42;99599.44;;;11.79;74.24
24558;BME280;12726;49.148;8.582;2023-03-13T02:42:31;99604.94;;;11.84;74.38
24558;BME280;12726;49.148;8.582;2023-03-13T02:45:17;99597.31;;;11.81;75.29
24558;BME280;12726;49.148;8.582;2023-03-13T02:48:02;99585.97;;;11.79;75.76
24558;BME280;12726;49.148;8.582;2023-03-13T02:50:48;99572.13;;;11.75;76.49
24558;BME280;12726;49.148;8.582;2023-03-13T02:53:34;99575.03;;;11.73;76.21
24558;BME280;12726;49.148;8.582;2023-03-13T02:56:21;99567.78;;;11.74;76.81
24558;BME280;12726;49.148;8.582;2023-03-13T02:59:10;99562.41;;;11.74;77.12
24558;BME280;12726;49.148;8.582;2023-03-13T03:01:55;99564.97;;;11.69;77.42
24558;BME280;12726;49.148;8.582;2023-03-13T03:04:40;99562.03;;;11.70;77.51
24558;BME280;12726;49.148;8.582;2023-03-13T03:07:26;99563.69;;;11.71;78.20
24558;BME280;12726;49.148;8.582;2023-03-13T03:10:13;99554.75;;;11.83;77.77
24558;BME280;12726;49.148;8.582;2023-03-13T03:12:58;99557.53;;;11.88;77.81
24558;BME280;12726;49.148;8.582;2023-03-13T03:15:45;99557.22;;;11.84;78.15
24558;BME280;12726;49.148;8.582;2023-03-13T03:18:30;99554.50;;;11.84;78.42
24558;BME280;12726;49.148;8.582;2023-03-13T03:21:15;99539.97;;;11.85;78.47
24558;BME280;12726;49.148;8.582;2023-03-13T03:24:01;99542.66;;;11.85;78.65
24558;BME280;12726;49.148;8.582;2023-03-13T03:26:47;99543.63;;;11.79;79.24
24558;BME280;12726;49.148;8.582;2023-03-13T03:29:34;99539.38;;;11.83;79.11
24558;BME280;12726;49.148;8.582;2023-03-13T03:32:20;99553.91;;;11.82;79.55
24558;BME280;12726;49.148;8.582;2023-03-13T03:35:06;99546.19;;;11.86;79.41
24558;BME280;12726;49.148;8.582;2023-03-13T03:37:52;99542.97;;;11.89;79.49
24558;BME280;12726;49.148;8.582;2023-03-13T03:40:37;99547.78;;;11.87;79.93
24558;BME280;12726;49.148;8.582;2023-03-13T03:43:23;99541.69;;;11.91;80.38
24558;BME280;12726;49.148;8.582;2023-03-13T03:46:08;99539.22;;;11.90;80.59
24558;BME280;12726;49.148;8.582;2023-03-13T03:48:55;99541.69;;;11.91;80.96
24558;BME280;12726;49.148;8.582;2023-03-13T03:51:40;99539.22;;;11.90;81.27
24558;BME280;12726;49.148;8.582;2023-03-13T03:54:28;99536.28;;;11.91;81.80
24558;BME280;12726;49.148;8.582;2023-03-13T03:57:13;99544.00;;;11.99;81.86
24558;BME280;12726;49.148;8.582;2023-03-13T03:59:58;99528.28;;;11.96;82.27
24558;BME280;12726;49.148;8.582;2023-03-13T04:02:44;99514.50;;;11.93;82.60
24558;BME280;12726;49.148;8.582;2023-03-13T04:05:30;99523.25;;;12.00;82.26
24558;BME280;12726;49.148;8.582;2023-03-13T04:08:16;99515.03;;;11.95;82.79
24558;BME280;12726;49.148;8.582;2023-03-13T04:11:01;99521.59;;;11.99;82.65
24558;BME280;12726;49.148;8.582;2023-03-13T04:13:47;99518.56;;;11.95;83.94
24558;BME280;12726;49.148;8.582;2023-03-13T04:16:33;99501.47;;;11.90;84.80
24558;BME280;12726;49.148;8.582;2023-03-13T04:19:18;99494.81;;;11.81;85.39
24558;BME280;12726;49.148;8.582;2023-03-13T04:22:05;99502.38;;;11.79;85.55
24558;BME280;12726;49.148;8.582;2023-03-13T04:24:50;99485.38;;;11.78;85.35
24558;BME280;12726;49.148;8.582;2023-03-13T04:27:36;99485.44;;;11.83;84.47
24558;BME280;12726;49.148;8.582;2023-03-13T04:30:21;99486.50;;;11.82;84.50
24558;BME280;12726;49.148;8.582;2023-03-13T04:33:06;99476.31;;;11.84;83.73
24558;BME280;12726;49.148;8.582;2023-03-13T04:35:52;99479.91;;;11.90;83.24
24558;BME280;12726;49.148;8.582;2023-03-13T04:38:38;99481.97;;;11.99;82.83
24558;BME280;12726;49.148;8.582;2023-03-13T04:41:24;99487.50;;;11.93;83.23
24558;BME280;12726;49.148;8.582;2023-03-13T04:44:09;99480.47;;;11.92;82.82
24558;BME280;12726;49.148;8.582;2023-03-13T04:46:55;99485.72;;;11.98;82.77
24558;BME280;12726;49.148;8.582;2023-03-13T04:49:40;99475.50;;;12.00;82.61
24558;BME280;12726;49.148;8.582;2023-03-13T04:52:28;99465.78;;;11.99;82.80
24558;BME280;12726;49.148;8.582;2023-03-13T04:55:16;99468.19;;;12.01;82.86
24558;BME280;12726;49.148;8.582;2023-03-13T04:58:01;99462.50;;;11.97;83.31
24558;BME280;12726;49.148;8.582;2023-03-13T05:00:47;99456.88;;;11.99;83.49
24558;BME280;12726;49.148;8.582;2023-03-13T05:03:32;99466.75;;;11.93;83.67
24558;BME280;12726;49.148;8.582;2023-03-13T05:06:17;99466.09;;;12.03;83.19
24558;BME280;12726;49.148;8.582;2023-03-13T05:09:05;99473.34;;;12.02;83.30
24558;BME280;12726;49.148;8.582;2023-03-13T05:11:51;99474.41;;;12.01;83.48
24558;BME280;12726;49.148;8.582;2023-03-13T05:14:37;99485.31;;;12.06;83.20
24558;BME280;12726;49.148;8.582;2023-03-13T05:17:22;99468.06;;;12.07;82.99
24558;BME280;12726;49.148;8.582;2023-03-13T05:20:11;99470.84;;;12.12;82.84
24558;BME280;12726;49.148;8.582;2023-03-13T05:22:56;99463.06;;;12.16;82.57
24558;BME280;12726;49.148;8.582;2023-03-13T05:25:42;99466.69;;;12.22;82.20
24558;BME280;12726;49.148;8.582;2023-03-13T05:28:29;99460.53;;;12.26;82.50
24558;BME280;12726;49.148;8.582;2023-03-13T05:31:16;99461.59;;;12.25;82.68
24558;BME280;12726;49.148;8.582;2023-03-13T05:34:01;99465.41;;;12.29;82.97
24558;BME280;12726;49.148;8.582;2023-03-13T05:36:46;99458.97;;;12.30;83.52
24558;BME280;12726;49.148;8.582;2023-03-13T05:39:32;99449.50;;;12.28;83.96
24558;BME280;12726;49.148;8.582;2023-03-13T05:42:17;99444.66;;;12.30;84.60
24558;BME280;12726;49.148;8.582;2023-03-13T05:45:05;99445.22;;;12.32;84.58
24558;BME280;12726;49.148;8.582;2023-03-13T05:47:52;99444.66;;;12.30;85.01
24558;BME280;12726;49.148;8.582;2023-03-13T05:50:37;99433.56;;;12.26;85.67
24558;BME280;12726;49.148;8.582;2023-03-13T05:53:23;99421.44;;;12.29;85.90
24558;BME280;12726;49.148;8.582;2023-03-13T05:56:08;99417.34;;;12.26;86.12
24558;BME280;12726;49.148;8.582;2023-03-13T05:58:54;99421.94;;;12.26;86.47
24558;BME280;12726;49.148;8.582;2023-03-13T06:01:41;99409.25;;;12.26;86.70
24558;BME280;12726;49.148;8.582;2023-03-13T06:04:26;99415.25;;;12.28;86.99
24558;BME280;12726;49.148;8.582;2023-03-13T06:07:11;99427.91;;;12.28;87.14
24558;BME280;12726;49.148;8.582;2023-03-13T06:09:57;99421.94;;;12.26;87.43
24558;BME280;12726;49.148;8.582;2023-03-13T06:12:42;99426.56;;;12.30;87.51
24558;BME280;12726;49.148;8.582;2023-03-13T06:15:28;99428.22;;;12.31;87.48
24558;BME280;12726;49.148;8.582;2023-03-13T06:18:14;99443.69;;;12.36;87.72
24558;BME280;12726;49.148;8.582;2023-03-13T06:21:00;99433.19;;;12.39;87.47
24558;BME280;12726;49.148;8.582;2023-03-13T06:23:46;99441.38;;;12.44;87.48
24558;BME280;12726;49.148;8.582;2023-03-13T06:26:31;99452.50;;;12.48;87.92
24558;BME280;12726;49.148;8.582;2023-03-13T06:29:17;99438.41;;;12.46;87.84
24558;BME280;12726;49.148;8.582;2023-03-13T06:32:02;99437.84;;;12.44;88.26
24558;BME280;12726;49.148;8.582;2023-03-13T06:34:49;99435.16;;;12.44;88.43
24558;BME280;12726;49.148;8.582;2023-03-13T06:37:35;99453.50;;;12.42;88.85
24558;BME280;12726;49.148;8.582;2023-03-13T06:40:20;99446.22;;;12.42;89.13
24558;BME280;12726;49.148;8.582;2023-03-13T06:43:06;99444.56;;;12.41;89.59
24558;BME280;12726;49.148;8.582;2023-03-13T06:45:51;99456.50;;;12.45;89.46
24558;BME280;12726;49.148;8.582;2023-03-13T06:48:36;99454.84;;;12.44;89.82
24558;BME280;12726;49.148;8.582;2023-03-13T06:51:26;99451.34;;;12.44;90.17
24558;BME280;12726;49.148;8.582;2023-03-13T06:54:11;99447.34;;;12.46;90.33
24558;BME280;12726;49.148;8.582;2023-03-13T06:56:57;99445.69;;;12.45;90.60
24558;BME280;12726;49.148;8.582;2023-03-13T06:59:42;99437.94;;;12.49;90.72
24558;BME280;12726;49.148;8.582;2023-03-13T07:02:28;99434.97;;;12.50;90.54
24558;BME280;12726;49.148;8.582;2023-03-13T07:05:13;99436.59;;;12.51;90.40
24558;BME280;12726;49.148;8.582;2023-03-13T07:08:00;99431.53;;;12.55;90.47
24558;BME280;12726;49.148;8.582;2023-03-13T07:10:45;99423.09;;;12.51;90.72
24558;BME280;12726;49.148;8.582;2023-03-13T07:13:34;99421.13;;;12.64;90.39
24558;BME280;12726;49.148;8.582;2023-03-13T07:16:19;99416.56;;;12.64;90.33
24558;BME280;12726;49.148;8.582;2023-03-13T07:19:04;99414.97;;;12.68;90.16
24558;BME280;12726;49.148;8.582;2023-03-13T07:21:50;99417.19;;;12.71;90.13
24558;BME280;12726;49.148;8.582;2023-03-13T07:24:37;99412.41;;;12.78;90.06
24558;BME280;12726;49.148;8.582;2023-03-13T07:27:23;99399.44;;;12.80;89.15
24558;BME280;12726;49.148;8.582;2023-03-13T07:30:10;99408.94;;;12.83;88.62
24558;BME280;12726;49.148;8.582;2023-03-13T07:32:57;99381.19;;;12.87;88.14
24558;BME280;12726;49.148;8.582;2023-03-13T07:35:47;99394.50;;;12.94;87.95
24558;BME280;12726;49.148;8.582;2023-03-13T07:38:33;99370.50;;;12.98;86.97
24558;BME280;12726;49.148;8.582;2023-03-13T07:41:19;99366.72;;;12.99;87.02
24558;BME280;12726;49.148;8.582;2023-03-13T07:44:05;99390.53;;;13.02;86.68
24558;BME280;12726;49.148;8.582;2023-03-13T07:46:50;99393.31;;;13.07;86.59
24558;BME280;12726;49.148;8.582;2023-03-13T07:49:35;99383.03;;;13.09;86.33
24558;BME280;12726;49.148;8.582;2023-03-13T07:52:25;99388.75;;;13.12;86.28
24558;BME280;12726;49.148;8.582;2023-03-13T07:55:11;99375.03;;;13.14;86.09
24558;BME280;12726;49.148;8.582;2023-03-13T07:57:57;99390.47;;;13.18;85.82
24558;BME280;12726;49.148;8.582;2023-03-13T08:00:43;99388.34;;;13.20;85.86
24558;BME280;12726;49.148;8.582;2023-03-13T08:03:28;99389.50;;;13.29;85.31
24558;BME280;12726;49.148;8.582;2023-03-13T08:06:15;99401.13;;;13.30;85.12
24558;BME280;12726;49.148;8.582;2023-03-13T08:09:01;99407.16;;;13.37;85.20
24558;BME280;12726;49.148;8.582;2023-03-13T08:11:46;99416.16;;;13.43;84.74
24558;BME280;12726;49.148;8.582;2023-03-13T08:14:33;99418.66;;;13.49;84.91
24558;BME280;12726;49.148;8.582;2023-03-13T08:17:18;99428.25;;;13.62;84.29
24558;BME280;12726;49.148;8.582;2023-03-13T08:20:05;99423.19;;;13.70;83.80
24558;BME280;12726;49.148;8.582;2023-03-13T08:22:54;99426.22;;;13.79;83.61
24558;BME280;12726;49.148;8.582;2023-03-13T08:25:40;99427.03;;;13.80;83.04
24558;BME280;12726;49.148;8.582;2023-03-13T08:28:25;99425.41;;;13.79;83.03
24558;BME280;12726;49.148;8.582;2023-03-13T08:31:14;99437.00;;;13.74;82.77
24558;BME280;12726;49.148;8.582;2023-03-13T08:34:00;99427.50;;;13.71;83.29
24558;BME280;12726;49.148;8.582;2023-03-13T08:36:45;99434.25;;;13.69;83.34
24558;BME280;12726;49.148;8.582;2023-03-13T08:39:30;99440.69;;;13.63;83.30
24558;BME280;12726;49.148;8.582;2023-03-13T08:42:15;99442.63;;;13.67;83.61
24558;BME280;12726;49.148;8.582;2023-03-13T08:45:01;99435.06;;;13.69;83.61
24558;BME280;12726;49.148;8.582;2023-03-13T08:47:51;99425.34;;;13.73;82.71
24558;BME280;12726;49.148;8.582;2023-03-13T08:50:36;99421.56;;;13.69;82.41
24558;BME280;12726;49.148;8.582;2023-03-13T08:53:21;99426.72;;;13.71;82.70
24558;BME280;12726;49.148;8.582;2023-03-13T08:56:08;99431.59;;;13.74;83.08
24558;BME280;12726;49.148;8.582;2023-03-13T08:58:55;99443.34;;;13.85;82.36
24558;BME280;12726;49.148;8.582;2023-03-13T09:01:40;99441.72;;;13.89;82.29
24558;BME280;12726;49.148;8.582;2023-03-13T09:04:27;99449.03;;;13.88;81.95
24558;BME280;12726;49.148;8.582;2023-03-13T09:07:12;99449.59;;;13.90;81.78
24558;BME280;12726;49.148;8.582;2023-03-13T09:09:57;99450.66;;;13.89;81.92
24558;BME280;12726;49.148;8.582;2023-03-13T09:12:42;99435.53;;;13.93;81.41
24558;BME280;12726;49.148;8.582;2023-03-13T09:15:29;99429.44;;;14.08;80.75
24558;BME280;12726;49.148;8.582;2023-03-13T09:18:15;99421.94;;;14.57;78.53
24558;BME280;12726;49.148;8.582;2023-03-13T09:21:02;99420.28;;;15.08;76.14
24558;BME280;12726;49.148;8.582;2023-03-13T09:23:50;99413.94;;;15.65;73.56
24558;BME280;12726;49.148;8.582;2023-03-13T09:26:35;99418.56;;;16.30;70.17
24558;BME280;12726;49.148;8.582;2023-03-13T09:29:21;99413.41;;;16.14;70.59
24558;BME280;12726;49.148;8.582;2023-03-13T09:32:06;99416.41;;;16.07;71.13
24558;BME280;12726;49.148;8.582;2023-03-13T09:34:52;99417.22;;;15.77;72.08
24558;BME280;12726;49.148;8.582;2023-03-13T09:37:38;99410.69;;;15.58;72.70
24558;BME280;12726;49.148;8.582;2023-03-13T09:40:25;99398.41;;;15.30;72.52
24558;BME280;12726;49.148;8.582;2023-03-13T09:43:19;99409.69;;;15.02;74.17
24558;BME280;12726;49.148;8.582;2023-03-13T09:46:11;99409.13;;;15.00;74.33
24558;BME280;12726;49.148;8.582;2023-03-13T09:48:59;99412.41;;;15.02;74.00
24558;BME280;12726;49.148;8.582;2023-03-13T09:51:49;99409.44;;;15.03;75.22
24558;BME280;12726;49.148;8.582;2023-03-13T09:54:40;99396.69;;;14.99;74.69
24558;BME280;12726;49.148;8.582;2023-03-13T09:57:32;99403.19;;;14.98;74.61
24558;BME280;12726;49.148;8.582;2023-03-13T10:00:23;99400.44;;;14.87;74.78
24558;BME280;12726;49.148;8.582;2023-03-13T10:03:15;99412.88;;;14.83;75.47
24558;BME280;12726;49.148;8.582;2023-03-13T10:06:05;99395.25;;;14.86;76.03
24558;BME280;12726;49.148;8.582;2023-03-13T10:08:55;99382.56;;;14.92;74.83
24558;BME280;12726;49.148;8.582;2023-03-13T10:11:50;99373.63;;;14.96;74.91
24558;BME280;12726;49.148;8.582;2023-03-13T10:14:41;99378.25;;;15.01;74.99
24558;BME280;12726;49.148;8.582;2023-03-13T10:17:31;99375.00;;;15.04;74.74
24558;BME280;12726;49.148;8.582;2023-03-13T10:20:21;99377.72;;;15.09;74.77
24558;BME280;12726;49.148;8.582;2023-03-13T10:23:13;99376.41;;;15.16;74.64
24558;BME280;12726;49.148;8.582;2023-03-13T10:26:00;99378.03;;;15.27;74.48
24558;BME280;12726;49.148;8.582;2023-03-13T10:28:47;99365.63;;;15.47;73.95
24558;BME280;12726;49.148;8.582;2023-03-13T10:31:36;99366.47;;;15.73;74.14
24558;BME280;12726;49.148;8.582;2023-03-13T10:34:21;99351.28;;;15.97;71.82
24558;BME280;12726;49.148;8.582;2023-03-13T10:37:11;99355.31;;;16.20;70.50
24558;BME280;12726;49.148;8.582;2023-03-13T10:40:11;99341.09;;;16.43;70.11
24558;BME280;12726;49.148;8.582;2023-03-13T10:43:01;99332.13;;;16.53;68.32
24558;BME280;12726;49.148;8.582;2023-03-13T10:45:48;99335.13;;;16.61;67.56
24558;BME280;12726;49.148;8.582;2023-03-13T10:48:35;99329.38;;;16.58;68.62
24558;BME280;12726;49.148;8.582;2023-03-13T10:51:22;99326.47;;;16.39;68.90
24558;BME280;12726;49.148;8.582;2023-03-13T10:54:21;99313.63;;;16.60;68.38
24558;BME280;12726;49.148;8.582;2023-03-13T10:57:20;99302.88;;;16.94;67.62
24558;BME280;12726;49.148;8.582;2023-03-13T11:00:28;99302.47;;;17.15;66.84
24558;BME280;12726;49.148;8.582;2023-03-13T11:03:17;99297.78;;;17.26;66.36
24558;BME280;12726;49.148;8.582;2023-03-13T11:06:03;99290.28;;;17.47;63.92
24558;BME280;12726;49.148;8.582;2023-03-13T11:08:48;99287.63;;;17.37;64.96
24558;BME280;12726;49.148;8.582;2023-03-13T11:11:43;99289.28;;;17.33;64.51
24558;BME280;12726;49.148;8.582;2023-03-13T11:14:29;99275.69;;;17.33;64.89
24558;BME280;12726;49.148;8.582;2023-03-13T11:17:22;99267.13;;;18.07;64.44
24558;BME280;12726;49.148;8.582;2023-03-13T11:20:25;99252.47;;;19.07;59.48
24558;BME280;12726;49.148;8.582;2023-03-13T11:23:19;99253.72;;;18.77;60.16
24558;BME280;12726;49.148;8.582;2023-03-13T11:26:10;99236.63;;;18.90;58.84
24558;BME280;12726;49.148;8.582;2023-03-13T11:29:08;99238.19;;;18.59;59.55
24558;BME280;12726;49.148;8.582;2023-03-13T11:32:04;99224.84;;;18.57;58.88
24558;BME280;12726;49.148;8.582;2023-03-13T11:34:57;99217.63;;;18.66;60.93
24558;BME280;12726;49.148;8.582;2023-03-13T11:37:48;99214.31;;;18.27;60.22
24558;BME280;12726;49.148;8.582;2023-03-13T11:40:38;99218.78;;;18.18;60.77
24558;BME280;12726;49.148;8.582;2023-03-13T11:43:38;99209.91;;;18.31;60.78
24558;BME280;12726;49.148;8.582;2023-03-13T11:46:36;99185.50;;;18.21;60.08
24558;BME280;12726;49.148;8.582;2023-03-13T11:49:38;99185.38;;;18.31;60.40
24558;BME280;12726;49.148;8.582;2023-03-13T11:52:39;99176.56;;;18.39;60.87
24558;BME280;12726;49.148;8.582;2023-03-13T11:55:47;99170.66;;;18.51;61.05
24558;BME280;12726;49.148;8.582;2023-03-13T11:58:47;99156.69;;;18.38;60.46
24558;BME280;12726;49.148;8.582;2023-03-13T12:01:37;99134.06;;;18.38;59.97
24558;BME280;12726;49.148;8.582;2023-03-13T12:04:27;99133.78;;;18.39;60.05
24558;BME280;12726;49.148;8.582;2023-03-13T12:07:19;99127.88;;;18.32;61.20
24558;BME280;12726;49.148;8.582;2023-03-13T12:10:11;99121.63;;;18.32;61.32
24558;BME280;12726;49.148;8.582;2023-03-13T12:13:01;99112.63;;;18.31;60.62
24558;BME280;12726;49.148;8.582;2023-03-13T12:15:50;99111.53;;;18.32;60.90
24558;BME280;12726;49.148;8.582;2023-03-13T12:18:39;99108.72;;;18.37;60.12
24558;BME280;12726;49.148;8.582;2023-03-13T12:21:28;99100.19;;;18.44;60.91
24558;BME280;12726;49.148;8.582;2023-03-13T12:24:20;99095.97;;;18.52;60.81
24558;BME280;12726;49.148;8.582;2023-03-13T12:27:12;99090.19;;;18.58;59.26
24558;BME280;12726;49.148;8.582;2023-03-13T12:30:04;99072.16;;;18.76;58.94
24558;BME280;12726;49.148;8.582;2023-03-13T12:32:57;99067.91;;;19.02;57.35
24558;BME280;12726;49.148;8.582;2023-03-13T12:35:43;99058.81;;;19.21;56.91
24558;BME280;12726;49.148;8.582;2023-03-13T12:38:36;99047.13;;;19.47;56.58
24558;BME280;12726;49.148;8.582;2023-03-13T12:41:25;99049.25;;;19.50;56.26
24558;BME280;12726;49.148;8.582;2023-03-13T12:44:16;99022.19;;;19.90;54.50
24558;BME280;12726;49.148;8.582;2023-03-13T12:47:09;99012.06;;;20.26;55.03
24558;BME280;12726;49.148;8.582;2023-03-13T12:50:12;99015.72;;;20.58;53.14
24558;BME280;12726;49.148;8.582;2023-03-13T12:53:20;99003.22;;;20.65;54.68
24558;BME280;12726;49.148;8.582;2023-03-13T12:59:21;98992.38;;;20.60;51.81
24558;BME280;12726;49.148;8.582;2023-03-13T13:02:16;98978.66;;;20.74;52.64
24558;BME280;12726;49.148;8.582;2023-03-13T13:05:02;98968.03;;;20.73;52.08
24558;BME280;12726;49.148;8.582;2023-03-13T13:07:52;98958.59;;;20.56;52.03
24558;BME280;12726;49.148;8.582;2023-03-13T13:10:37;98962.59;;;20.50;51.48
24558;BME280;12726;49.148;8.582;2023-03-13T13:13:29;98953.25;;;20.51;51.62
24558;BME280;12726;49.148;8.582;2023-03-13T13:16:17;98944.66;;;20.66;51.86
24558;BME280;12726;49.148;8.582;2023-03-13T13:19:44;98943.59;;;20.54;51.96
24558;BME280;12726;49.148;8.582;2023-03-13T13:22:45;98928.38;;;20.61;50.38
24558;BME280;12726;49.148;8.582;2023-03-13T13:25:33;98922.44;;;20.99;50.64
24558;BME280;12726;49.148;8.582;2023-03-13T13:28:25;98925.25;;;21.25;48.53
24558;BME280;12726;49.148;8.582;2023-03-13T13:31:44;98912.97;;;21.14;48.29
24558;BME280;12726;49.148;8.582;2023-03-13T13:34:58;98904.13;;;21.08;49.13
24558;BME280;12726;49.148;8.582;2023-03-13T13:37:45;98899.50;;;21.17;49.49
24558;BME280;12726;49.148;8.582;2023-03-13T13:40:31;98894.50;;;21.19;48.22
24558;BME280;12726;49.148;8.582;2023-03-13T13:43:20;98884.03;;;21.21;48.67
24558;BME280;12726;49.148;8.582;2023-03-13T13:46:19;98867.31;;;21.23;48.35
24558;BME280;12726;49.148;8.582;2023-03-13T13:49:13;98872.47;;;21.33;48.64
24558;BME280;12726;49.148;8.582;2023-03-13T13:52:27;98851.22;;;21.56;49.14
24558;BME280;12726;49.148;8.582;2023-03-13T13:55:46;98845.75;;;21.30;47.79
24558;BME280;12726;49.148;8.582;2023-03-13T13:58:31;98846.03;;;21.20;47.85
24558;BME280;12726;49.148;8.582;2023-03-13T14:01:17;98841.88;;;21.22;48.22
24558;BME280;12726;49.148;8.582;2023-03-13T14:04:11;98844.13;;;21.20;48.46
24558;BME280;12726;49.148;8.582;2023-03-13T14:07:00;98830.38;;;21.11;48.53
24558;BME280;12726;49.148;8.582;2023-03-13T14:09:57;98834.13;;;21.33;48.85
24558;BME280;12726;49.148;8.582;2023-03-13T14:12:45;98825.75;;;21.21;47.66
24558;BME280;12726;49.148;8.582;2023-03-13T14:15:32;98812.41;;;21.19;48.08
24558;BME280;12726;49.148;8.582;2023-03-13T14:18:23;98801.78;;;21.35;48.03
24558;BME280;12726;49.148;8.582;2023-03-13T14:21:09;98802.28;;;21.45;47.82
24558;BME280;12726;49.148;8.582;2023-03-13T14:23:57;98788.41;;;21.16;49.46
24558;BME280;12726;49.148;8.582;2023-03-13T14:26:44;98772.31;;;21.32;49.50
24558;BME280;12726;49.148;8.582;2023-03-13T14:29:30;98767.00;;;21.35;49.49
24558;BME280;12726;49.148;8.582;2023-03-13T14:32:16;98759.94;;;21.17;49.25
24558;BME280;12726;49.148;8.582;2023-03-13T14:35:02;98752.81;;;21.33;47.86
24558;BME280;12726;49.148;8.582;2023-03-13T14:37:50;98747.97;;;21.39;47.75
24558;BME280;12726;49.148;8.582;2023-03-13T14:40:37;98739.13;;;21.42;48.28
24558;BME280;12726;49.148;8.582;2023-03-13T14:43:30;98729.97;;;21.38;48.03
24558;BME280;12726;49.148;8.582;2023-03-13T14:46:24;98723.69;;;21.29;47.80
24558;BME280;12726;49.148;8.582;2023-03-13T14:49:15;98718.53;;;21.19;47.48
24558;BME280;12726;49.148;8.582;2023-03-13T14:52:04;98702.88;;;21.10;47.84
24558;BME280;12726;49.148;8.582;2023-03-13T14:54:54;98686.81;;;21.09;48.25